sensor_id;sensor_type;location;lat;lon;timestamp;P1;durP1;ratioP1;P2;durP2;ratioP2
69087;SDS011;56190;43.562;5.036;2022-09-09T00:06:28;2.95;;;1.35;;
69087;SDS011;56190;43.562;5.036;2022-09-09T00:11:43;2.33;;;1.27;;
69087;SDS011;56190;43.562;5.036;2022-09-09T00:16:56;3.22;;;1.10;;
69087;SDS011;56190;43.562;5.036;2022-09-09T00:19:28;6.82;;;1.25;;
69087;SDS011;56190;43.562;5.036;2022-09-09T00:22:18;3.92;;;0.90;;
69087;SDS011;56190;43.562;5.036;2022-09-09T00:24:43;2.22;;;1.27;;
69087;SDS011;56190;43.562;5.036;2022-09-09T00:30:40;4.43;;;1.30;;
69087;SDS011;56190;43.562;5.036;2022-09-09T00:32:43;3.50;;;1.17;;
69087;SDS011;56190;43.562;5.036;2022-09-09T00:37:37;1.65;;;1.27;;
69087;SDS011;56190;43.562;5.036;2022-09-09T00:40:08;7.18;;;1.58;;
69087;SDS011;56190;43.562;5.036;2022-09-09T00:42:42;3.30;;;1.27;;
69087;SDS011;56190;43.562;5.036;2022-09-09T00:47:51;3.75;;;1.20;;
69087;SDS011;56190;43.562;5.036;2022-09-09T00:58:06;3.35;;;1.35;;
69087;SDS011;56190;43.562;5.036;2022-09-09T01:00:41;1.98;;;1.20;;
69087;SDS011;56190;43.562;5.036;2022-09-09T01:07:57;3.80;;;1.38;;
69087;SDS011;56190;43.562;5.036;2022-09-09T01:13:13;3.47;;;1.70;;
69087;SDS011;56190;43.562;5.036;2022-09-09T01:15:40;4.00;;;1.30;;
69087;SDS011;56190;43.562;5.036;2022-09-09T01:18:08;3.45;;;1.50;;
69087;SDS011;56190;43.562;5.036;2022-09-09T01:23:30;2.10;;;1.73;;
69087;SDS011;56190;43.562;5.036;2022-09-09T01:26:10;2.60;;;1.23;;
69087;SDS011;56190;43.562;5.036;2022-09-09T01:28:37;2.45;;;1.48;;
69087;SDS011;56190;43.562;5.036;2022-09-09T01:31:04;3.95;;;1.40;;
69087;SDS011;56190;43.562;5.036;2022-09-09T01:33:30;2.75;;;1.30;;
69087;SDS011;56190;43.562;5.036;2022-09-09T01:36:00;3.20;;;1.42;;
69087;SDS011;56190;43.562;5.036;2022-09-09T01:38:28;2.38;;;1.50;;
69087;SDS011;56190;43.562;5.036;2022-09-09T01:40:54;3.53;;;1.40;;
69087;SDS011;56190;43.562;5.036;2022-09-09T01:43:20;2.75;;;1.30;;
69087;SDS011;56190;43.562;5.036;2022-09-09T01:45:46;4.28;;;1.60;;
69087;SDS011;56190;43.562;5.036;2022-09-09T01:57:08;2.13;;;1.30;;
69087;SDS011;56190;43.562;5.036;2022-09-09T01:59:42;3.58;;;1.10;;
69087;SDS011;56190;43.562;5.036;2022-09-09T02:02:10;3.55;;;1.27;;
69087;SDS011;56190;43.562;5.036;2022-09-09T02:04:41;3.28;;;1.55;;
69087;SDS011;56190;43.562;5.036;2022-09-09T02:07:10;2.08;;;1.20;;
69087;SDS011;56190;43.562;5.036;2022-09-09T02:09:40;3.42;;;1.27;;
69087;SDS011;56190;43.562;5.036;2022-09-09T02:12:16;3.60;;;1.48;;
69087;SDS011;56190;43.562;5.036;2022-09-09T02:14:47;2.20;;;1.30;;
69087;SDS011;56190;43.562;5.036;2022-09-09T02:17:15;3.08;;;1.40;;
69087;SDS011;56190;43.562;5.036;2022-09-09T02:19:45;3.85;;;1.20;;
69087;SDS011;56190;43.562;5.036;2022-09-09T02:22:13;4.70;;;1.45;;
69087;SDS011;56190;43.562;5.036;2022-09-09T02:24:40;6.22;;;1.20;;
69087;SDS011;56190;43.562;5.036;2022-09-09T02:27:07;5.55;;;1.50;;
69087;SDS011;56190;43.562;5.036;2022-09-09T02:29:37;2.55;;;1.20;;
69087;SDS011;56190;43.562;5.036;2022-09-09T02:32:05;2.00;;;1.20;;
69087;SDS011;56190;43.562;5.036;2022-09-09T02:34:31;2.13;;;1.30;;
69087;SDS011;56190;43.562;5.036;2022-09-09T02:36:59;4.18;;;1.38;;
69087;SDS011;56190;43.562;5.036;2022-09-09T02:39:25;3.08;;;1.40;;
69087;SDS011;56190;43.562;5.036;2022-09-09T02:41:51;3.28;;;1.20;;
69087;SDS011;56190;43.562;5.036;2022-09-09T02:44:17;1.27;;;1.13;;
69087;SDS011;56190;43.562;5.036;2022-09-09T02:49:16;3.05;;;1.20;;
69087;SDS011;56190;43.562;5.036;2022-09-09T02:56:55;2.80;;;1.30;;
69087;SDS011;56190;43.562;5.036;2022-09-09T02:59:26;3.35;;;1.48;;
69087;SDS011;56190;43.562;5.036;2022-09-09T03:01:51;1.73;;;1.00;;
69087;SDS011;56190;43.562;5.036;2022-09-09T03:04:18;2.92;;;1.30;;
69087;SDS011;56190;43.562;5.036;2022-09-09T03:06:43;2.03;;;1.30;;
69087;SDS011;56190;43.562;5.036;2022-09-09T03:09:09;2.70;;;1.33;;
69087;SDS011;56190;43.562;5.036;2022-09-09T03:11:35;3.80;;;1.50;;
69087;SDS011;56190;43.562;5.036;2022-09-09T03:14:01;4.03;;;1.52;;
69087;SDS011;56190;43.562;5.036;2022-09-09T03:16:26;3.20;;;1.30;;
69087;SDS011;56190;43.562;5.036;2022-09-09T03:18:52;2.50;;;1.20;;
69087;SDS011;56190;43.562;5.036;2022-09-09T03:21:17;2.67;;;1.35;;
69087;SDS011;56190;43.562;5.036;2022-09-09T03:23:43;3.83;;;1.60;;
69087;SDS011;56190;43.562;5.036;2022-09-09T03:26:10;5.88;;;1.50;;
69087;SDS011;56190;43.562;5.036;2022-09-09T03:28:35;2.20;;;1.33;;
69087;SDS011;56190;43.562;5.036;2022-09-09T03:31:01;2.53;;;1.27;;
69087;SDS011;56190;43.562;5.036;2022-09-09T03:33:26;4.07;;;1.40;;
69087;SDS011;56190;43.562;5.036;2022-09-09T03:35:52;3.72;;;1.60;;
69087;SDS011;56190;43.562;5.036;2022-09-09T03:38:18;5.40;;;1.48;;
69087;SDS011;56190;43.562;5.036;2022-09-09T03:40:49;4.03;;;1.52;;
69087;SDS011;56190;43.562;5.036;2022-09-09T03:43:15;3.92;;;1.45;;
69087;SDS011;56190;43.562;5.036;2022-09-09T03:45:44;2.80;;;1.50;;
69087;SDS011;56190;43.562;5.036;2022-09-09T03:48:11;3.08;;;1.38;;
69087;SDS011;56190;43.562;5.036;2022-09-09T03:50:37;4.07;;;1.40;;
69087;SDS011;56190;43.562;5.036;2022-09-09T03:53:02;2.50;;;1.33;;
69087;SDS011;56190;43.562;5.036;2022-09-09T03:55:27;2.08;;;1.42;;
69087;SDS011;56190;43.562;5.036;2022-09-09T03:57:52;2.38;;;1.58;;
69087;SDS011;56190;43.562;5.036;2022-09-09T04:00:18;2.03;;;1.23;;
69087;SDS011;56190;43.562;5.036;2022-09-09T04:02:43;2.03;;;1.60;;
69087;SDS011;56190;43.562;5.036;2022-09-09T04:05:08;4.00;;;1.42;;
69087;SDS011;56190;43.562;5.036;2022-09-09T04:07:34;3.00;;;1.35;;
69087;SDS011;56190;43.562;5.036;2022-09-09T04:09:59;6.40;;;1.70;;
69087;SDS011;56190;43.562;5.036;2022-09-09T04:12:24;4.22;;;1.60;;
69087;SDS011;56190;43.562;5.036;2022-09-09T04:14:50;2.50;;;1.25;;
69087;SDS011;56190;43.562;5.036;2022-09-09T04:17:15;4.10;;;1.50;;
69087;SDS011;56190;43.562;5.036;2022-09-09T04:19:40;3.70;;;1.30;;
69087;SDS011;56190;43.562;5.036;2022-09-09T04:22:07;3.83;;;1.70;;
69087;SDS011;56190;43.562;5.036;2022-09-09T04:24:32;2.88;;;1.48;;
69087;SDS011;56190;43.562;5.036;2022-09-09T04:26:57;4.40;;;1.40;;
69087;SDS011;56190;43.562;5.036;2022-09-09T04:29:23;3.63;;;1.50;;
69087;SDS011;56190;43.562;5.036;2022-09-09T04:31:48;3.75;;;1.70;;
69087;SDS011;56190;43.562;5.036;2022-09-09T04:34:13;2.63;;;1.60;;
69087;SDS011;56190;43.562;5.036;2022-09-09T04:36:38;4.38;;;1.50;;
69087;SDS011;56190;43.562;5.036;2022-09-09T04:39:05;2.90;;;1.52;;
69087;SDS011;56190;43.562;5.036;2022-09-09T04:41:30;3.22;;;1.30;;
69087;SDS011;56190;43.562;5.036;2022-09-09T04:43:56;2.85;;;1.35;;
69087;SDS011;56190;43.562;5.036;2022-09-09T04:46:22;2.50;;;1.27;;
69087;SDS011;56190;43.562;5.036;2022-09-09T04:48:48;2.95;;;1.50;;
69087;SDS011;56190;43.562;5.036;2022-09-09T04:51:14;5.63;;;1.80;;
69087;SDS011;56190;43.562;5.036;2022-09-09T04:53:39;3.10;;;1.40;;
69087;SDS011;56190;43.562;5.036;2022-09-09T04:56:09;4.47;;;1.38;;
69087;SDS011;56190;43.562;5.036;2022-09-09T04:58:35;2.70;;;1.50;;
69087;SDS011;56190;43.562;5.036;2022-09-09T05:01:04;2.90;;;1.40;;
69087;SDS011;56190;43.562;5.036;2022-09-09T05:03:30;3.53;;;1.40;;
69087;SDS011;56190;43.562;5.036;2022-09-09T05:06:01;3.17;;;1.33;;
69087;SDS011;56190;43.562;5.036;2022-09-09T05:10:53;2.07;;;1.37;;
69087;SDS011;56190;43.562;5.036;2022-09-09T05:13:18;3.22;;;1.58;;
69087;SDS011;56190;43.562;5.036;2022-09-09T05:15:50;4.55;;;1.58;;
69087;SDS011;56190;43.562;5.036;2022-09-09T05:20:41;3.28;;;1.60;;
69087;SDS011;56190;43.562;5.036;2022-09-09T05:23:07;3.38;;;1.60;;
69087;SDS011;56190;43.562;5.036;2022-09-09T05:25:33;3.53;;;1.63;;
69087;SDS011;56190;43.562;5.036;2022-09-09T05:27:58;2.03;;;1.50;;
69087;SDS011;56190;43.562;5.036;2022-09-09T05:30:24;4.40;;;1.70;;
69087;SDS011;56190;43.562;5.036;2022-09-09T05:32:51;5.63;;;1.58;;
69087;SDS011;56190;43.562;5.036;2022-09-09T05:35:16;3.03;;;1.55;;
69087;SDS011;56190;43.562;5.036;2022-09-09T05:37:44;2.97;;;1.27;;
69087;SDS011;56190;43.562;5.036;2022-09-09T05:40:11;2.97;;;1.50;;
69087;SDS011;56190;43.562;5.036;2022-09-09T05:42:36;2.95;;;1.40;;
69087;SDS011;56190;43.562;5.036;2022-09-09T05:45:01;5.40;;;1.88;;
69087;SDS011;56190;43.562;5.036;2022-09-09T05:47:27;2.90;;;1.52;;
69087;SDS011;56190;43.562;5.036;2022-09-09T05:49:53;1.98;;;1.40;;
69087;SDS011;56190;43.562;5.036;2022-09-09T05:52:18;3.08;;;1.52;;
69087;SDS011;56190;43.562;5.036;2022-09-09T05:54:43;2.55;;;1.20;;
69087;SDS011;56190;43.562;5.036;2022-09-09T05:57:08;5.20;;;1.45;;
69087;SDS011;56190;43.562;5.036;2022-09-09T05:59:34;2.20;;;1.42;;
69087;SDS011;56190;43.562;5.036;2022-09-09T06:01:59;4.60;;;1.70;;
69087;SDS011;56190;43.562;5.036;2022-09-09T06:04:24;2.63;;;1.77;;
69087;SDS011;56190;43.562;5.036;2022-09-09T06:06:50;1.98;;;1.10;;
69087;SDS011;56190;43.562;5.036;2022-09-09T06:09:15;4.13;;;1.33;;
69087;SDS011;56190;43.562;5.036;2022-09-09T06:11:40;2.83;;;1.42;;
69087;SDS011;56190;43.562;5.036;2022-09-09T06:14:06;3.72;;;1.30;;
69087;SDS011;56190;43.562;5.036;2022-09-09T06:16:32;4.45;;;1.50;;
69087;SDS011;56190;43.562;5.036;2022-09-09T06:19:00;4.20;;;1.20;;
69087;SDS011;56190;43.562;5.036;2022-09-09T06:21:29;4.05;;;1.20;;
69087;SDS011;56190;43.562;5.036;2022-09-09T06:23:55;3.25;;;1.38;;
69087;SDS011;56190;43.562;5.036;2022-09-09T06:26:21;3.72;;;1.58;;
69087;SDS011;56190;43.562;5.036;2022-09-09T06:28:47;1.60;;;1.25;;
69087;SDS011;56190;43.562;5.036;2022-09-09T06:31:15;4.80;;;1.50;;
69087;SDS011;56190;43.562;5.036;2022-09-09T06:33:42;3.28;;;1.30;;
69087;SDS011;56190;43.562;5.036;2022-09-09T06:36:14;4.93;;;1.70;;
69087;SDS011;56190;43.562;5.036;2022-09-09T06:38:40;2.88;;;1.20;;
69087;SDS011;56190;43.562;5.036;2022-09-09T06:41:07;3.58;;;1.45;;
69087;SDS011;56190;43.562;5.036;2022-09-09T06:43:33;2.67;;;1.23;;
69087;SDS011;56190;43.562;5.036;2022-09-09T06:45:59;3.63;;;1.10;;
69087;SDS011;56190;43.562;5.036;2022-09-09T06:48:25;1.98;;;0.90;;
69087;SDS011;56190;43.562;5.036;2022-09-09T06:51:00;3.67;;;1.38;;
69087;SDS011;56190;43.562;5.036;2022-09-09T06:53:26;3.45;;;1.40;;
69087;SDS011;56190;43.562;5.036;2022-09-09T06:55:52;6.40;;;2.70;;
69087;SDS011;56190;43.562;5.036;2022-09-09T06:58:17;4.60;;;1.30;;
69087;SDS011;56190;43.562;5.036;2022-09-09T07:00:43;2.28;;;1.00;;
69087;SDS011;56190;43.562;5.036;2022-09-09T07:03:09;3.80;;;1.30;;
69087;SDS011;56190;43.562;5.036;2022-09-09T07:05:34;2.58;;;1.27;;
69087;SDS011;56190;43.562;5.036;2022-09-09T07:08:00;2.88;;;1.10;;
69087;SDS011;56190;43.562;5.036;2022-09-09T07:10:25;5.28;;;1.60;;
69087;SDS011;56190;43.562;5.036;2022-09-09T07:12:53;3.35;;;1.05;;
69087;SDS011;56190;43.562;5.036;2022-09-09T07:15:19;2.78;;;1.30;;
69087;SDS011;56190;43.562;5.036;2022-09-09T07:17:44;4.65;;;1.30;;
69087;SDS011;56190;43.562;5.036;2022-09-09T07:20:10;1.27;;;1.17;;
69087;SDS011;56190;43.562;5.036;2022-09-09T07:22:35;3.10;;;1.63;;
69087;SDS011;56190;43.562;5.036;2022-09-09T07:25:00;2.70;;;1.05;;
69087;SDS011;56190;43.562;5.036;2022-09-09T07:27:27;2.22;;;1.02;;
69087;SDS011;56190;43.562;5.036;2022-09-09T07:29:52;1.88;;;1.13;;
69087;SDS011;56190;43.562;5.036;2022-09-09T07:32:19;2.20;;;1.10;;
69087;SDS011;56190;43.562;5.036;2022-09-09T07:34:45;2.67;;;1.05;;
69087;SDS011;56190;43.562;5.036;2022-09-09T07:37:10;2.70;;;0.85;;
69087;SDS011;56190;43.562;5.036;2022-09-09T07:39:36;1.50;;;0.80;;
69087;SDS011;56190;43.562;5.036;2022-09-09T07:42:02;2.05;;;0.90;;
69087;SDS011;56190;43.562;5.036;2022-09-09T07:44:27;3.20;;;1.15;;
69087;SDS011;56190;43.562;5.036;2022-09-09T07:46:53;1.40;;;1.00;;
69087;SDS011;56190;43.562;5.036;2022-09-09T07:49:18;1.17;;;1.00;;
69087;SDS011;56190;43.562;5.036;2022-09-09T07:51:45;5.22;;;1.00;;
69087;SDS011;56190;43.562;5.036;2022-09-09T07:54:12;1.10;;;0.80;;
69087;SDS011;56190;43.562;5.036;2022-09-09T07:56:38;2.00;;;1.10;;
69087;SDS011;56190;43.562;5.036;2022-09-09T07:59:04;3.45;;;0.80;;
69087;SDS011;56190;43.562;5.036;2022-09-09T08:01:35;2.83;;;0.80;;
69087;SDS011;56190;43.562;5.036;2022-09-09T08:04:05;3.13;;;0.95;;
69087;SDS011;56190;43.562;5.036;2022-09-09T08:06:32;2.53;;;1.00;;
69087;SDS011;56190;43.562;5.036;2022-09-09T08:08:58;4.88;;;1.27;;
69087;SDS011;56190;43.562;5.036;2022-09-09T08:11:24;1.80;;;0.90;;
69087;SDS011;56190;43.562;5.036;2022-09-09T08:13:50;2.17;;;1.00;;
69087;SDS011;56190;43.562;5.036;2022-09-09T08:16:17;2.72;;;1.00;;
69087;SDS011;56190;43.562;5.036;2022-09-09T08:18:43;3.70;;;1.70;;
69087;SDS011;56190;43.562;5.036;2022-09-09T08:23:36;2.30;;;0.70;;
69087;SDS011;56190;43.562;5.036;2022-09-09T08:26:05;2.03;;;0.70;;
69087;SDS011;56190;43.562;5.036;2022-09-09T08:28:31;3.83;;;0.75;;
69087;SDS011;56190;43.562;5.036;2022-09-09T08:31:04;1.45;;;0.70;;
69087;SDS011;56190;43.562;5.036;2022-09-09T08:33:29;5.95;;;1.17;;
69087;SDS011;56190;43.562;5.036;2022-09-09T08:35:54;1.25;;;0.70;;
69087;SDS011;56190;43.562;5.036;2022-09-09T08:38:20;1.88;;;0.50;;
69087;SDS011;56190;43.562;5.036;2022-09-09T08:40:46;2.55;;;0.75;;
69087;SDS011;56190;43.562;5.036;2022-09-09T08:43:14;1.67;;;0.65;;
69087;SDS011;56190;43.562;5.036;2022-09-09T08:46:00;1.63;;;0.68;;
69087;SDS011;56190;43.562;5.036;2022-09-09T08:50:54;1.50;;;0.80;;
69087;SDS011;56190;43.562;5.036;2022-09-09T08:55:52;1.23;;;0.65;;
69087;SDS011;56190;43.562;5.036;2022-09-09T09:08:25;0.52;;;0.43;;
69087;SDS011;56190;43.562;5.036;2022-09-09T09:10:53;1.33;;;0.70;;
69087;SDS011;56190;43.562;5.036;2022-09-09T09:13:20;1.85;;;0.50;;
69087;SDS011;56190;43.562;5.036;2022-09-09T09:15:51;3.90;;;0.50;;
69087;SDS011;56190;43.562;5.036;2022-09-09T09:18:18;0.60;;;0.50;;
69087;SDS011;56190;43.562;5.036;2022-09-09T09:23:10;2.08;;;0.55;;
69087;SDS011;56190;43.562;5.036;2022-09-09T09:25:38;1.42;;;0.80;;
69087;SDS011;56190;43.562;5.036;2022-09-09T09:28:18;1.58;;;0.90;;
69087;SDS011;56190;43.562;5.036;2022-09-09T09:30:52;3.55;;;0.60;;
69087;SDS011;56190;43.562;5.036;2022-09-09T09:33:26;1.65;;;0.63;;
69087;SDS011;56190;43.562;5.036;2022-09-09T09:35:53;1.17;;;0.50;;
69087;SDS011;56190;43.562;5.036;2022-09-09T09:38:25;2.20;;;0.50;;
69087;SDS011;56190;43.562;5.036;2022-09-09T09:40:52;1.45;;;0.47;;
69087;SDS011;56190;43.562;5.036;2022-09-09T09:43:22;1.00;;;0.50;;
69087;SDS011;56190;43.562;5.036;2022-09-09T09:45:49;1.13;;;0.60;;
69087;SDS011;56190;43.562;5.036;2022-09-09T09:48:14;1.25;;;0.50;;
69087;SDS011;56190;43.562;5.036;2022-09-09T09:50:46;1.15;;;0.50;;
69087;SDS011;56190;43.562;5.036;2022-09-09T09:53:17;2.72;;;0.80;;
69087;SDS011;56190;43.562;5.036;2022-09-09T09:55:48;0.77;;;0.50;;
69087;SDS011;56190;43.562;5.036;2022-09-09T09:58:15;0.75;;;0.50;;
69087;SDS011;56190;43.562;5.036;2022-09-09T10:00:47;1.00;;;0.50;;
69087;SDS011;56190;43.562;5.036;2022-09-09T10:03:24;0.47;;;0.30;;
69087;SDS011;56190;43.562;5.036;2022-09-09T10:05:50;2.00;;;0.40;;
69087;SDS011;56190;43.562;5.036;2022-09-09T10:08:16;0.70;;;0.50;;
69087;SDS011;56190;43.562;5.036;2022-09-09T10:10:46;1.42;;;0.40;;
69087;SDS011;56190;43.562;5.036;2022-09-09T10:23:45;2.15;;;0.40;;
69087;SDS011;56190;43.562;5.036;2022-09-09T10:36:46;0.55;;;0.50;;
69087;SDS011;56190;43.562;5.036;2022-09-09T10:56:59;2.75;;;0.52;;
69087;SDS011;56190;43.562;5.036;2022-09-09T10:59:29;1.50;;;0.68;;
69087;SDS011;56190;43.562;5.036;2022-09-09T11:02:05;1.10;;;0.50;;
69087;SDS011;56190;43.562;5.036;2022-09-09T11:04:40;0.75;;;0.50;;
69087;SDS011;56190;43.562;5.036;2022-09-09T11:07:08;1.33;;;0.50;;
69087;SDS011;56190;43.562;5.036;2022-09-09T11:09:36;1.33;;;0.50;;
69087;SDS011;56190;43.562;5.036;2022-09-09T11:12:03;2.20;;;0.57;;
69087;SDS011;56190;43.562;5.036;2022-09-09T11:14:36;1.95;;;0.63;;
69087;SDS011;56190;43.562;5.036;2022-09-09T11:19:40;1.65;;;0.60;;
69087;SDS011;56190;43.562;5.036;2022-09-09T11:24:50;2.22;;;0.80;;
69087;SDS011;56190;43.562;5.036;2022-09-09T11:27:19;1.27;;;0.70;;
69087;SDS011;56190;43.562;5.036;2022-09-09T11:42:46;1.33;;;0.68;;
69087;SDS011;56190;43.562;5.036;2022-09-09T11:45:24;2.00;;;0.60;;
69087;SDS011;56190;43.562;5.036;2022-09-09T11:47:53;1.27;;;0.40;;
69087;SDS011;56190;43.562;5.036;2022-09-09T11:52:44;0.73;;;0.57;;
69087;SDS011;56190;43.562;5.036;2022-09-09T11:55:30;2.22;;;0.50;;
69087;SDS011;56190;43.562;5.036;2022-09-09T11:58:01;0.95;;;0.43;;
69087;SDS011;56190;43.562;5.036;2022-09-09T12:03:02;0.93;;;0.73;;
69087;SDS011;56190;43.562;5.036;2022-09-09T12:05:38;0.95;;;0.50;;
69087;SDS011;56190;43.562;5.036;2022-09-09T12:08:04;1.60;;;0.50;;
69087;SDS011;56190;43.562;5.036;2022-09-09T12:10:33;0.95;;;0.68;;
69087;SDS011;56190;43.562;5.036;2022-09-09T12:13:15;0.95;;;0.43;;
69087;SDS011;56190;43.562;5.036;2022-09-09T12:15:49;1.15;;;0.50;;
69087;SDS011;56190;43.562;5.036;2022-09-09T12:18:15;2.60;;;0.70;;
69087;SDS011;56190;43.562;5.036;2022-09-09T12:21:06;1.15;;;0.60;;
69087;SDS011;56190;43.562;5.036;2022-09-09T12:26:07;1.73;;;0.75;;
69087;SDS011;56190;43.562;5.036;2022-09-09T12:28:41;1.17;;;0.50;;
69087;SDS011;56190;43.562;5.036;2022-09-09T12:33:36;1.73;;;0.60;;
69087;SDS011;56190;43.562;5.036;2022-09-09T12:36:02;1.42;;;0.60;;
69087;SDS011;56190;43.562;5.036;2022-09-09T12:38:34;2.05;;;0.50;;
69087;SDS011;56190;43.562;5.036;2022-09-09T12:41:00;2.15;;;0.65;;
69087;SDS011;56190;43.562;5.036;2022-09-09T12:43:26;3.55;;;0.80;;
69087;SDS011;56190;43.562;5.036;2022-09-09T12:45:53;1.27;;;0.68;;
69087;SDS011;56190;43.562;5.036;2022-09-09T12:48:34;2.10;;;0.70;;
69087;SDS011;56190;43.562;5.036;2022-09-09T12:51:01;0.90;;;0.50;;
69087;SDS011;56190;43.562;5.036;2022-09-09T12:53:31;1.88;;;0.63;;
69087;SDS011;56190;43.562;5.036;2022-09-09T12:56:04;1.30;;;0.63;;
69087;SDS011;56190;43.562;5.036;2022-09-09T12:58:30;1.77;;;0.63;;
69087;SDS011;56190;43.562;5.036;2022-09-09T13:00:59;1.05;;;0.68;;
69087;SDS011;56190;43.562;5.036;2022-09-09T13:03:25;1.50;;;0.60;;
69087;SDS011;56190;43.562;5.036;2022-09-09T13:05:51;2.10;;;0.80;;
69087;SDS011;56190;43.562;5.036;2022-09-09T13:08:17;2.10;;;0.68;;
69087;SDS011;56190;43.562;5.036;2022-09-09T13:13:14;1.65;;;0.60;;
69087;SDS011;56190;43.562;5.036;2022-09-09T13:15:47;2.28;;;0.60;;
69087;SDS011;56190;43.562;5.036;2022-09-09T13:18:13;0.70;;;0.50;;
69087;SDS011;56190;43.562;5.036;2022-09-09T13:20:39;1.30;;;0.50;;
69087;SDS011;56190;43.562;5.036;2022-09-09T13:23:11;2.63;;;1.08;;
69087;SDS011;56190;43.562;5.036;2022-09-09T13:25:36;0.82;;;0.60;;
69087;SDS011;56190;43.562;5.036;2022-09-09T13:28:04;1.08;;;0.63;;
69087;SDS011;56190;43.562;5.036;2022-09-09T13:30:36;3.03;;;0.60;;
69087;SDS011;56190;43.562;5.036;2022-09-09T13:38:18;2.15;;;0.55;;
69087;SDS011;56190;43.562;5.036;2022-09-09T13:40:56;1.63;;;0.75;;
69087;SDS011;56190;43.562;5.036;2022-09-09T13:43:23;1.25;;;0.50;;
69087;SDS011;56190;43.562;5.036;2022-09-09T13:48:21;1.73;;;0.52;;
69087;SDS011;56190;43.562;5.036;2022-09-09T13:50:59;0.80;;;0.50;;
69087;SDS011;56190;43.562;5.036;2022-09-09T13:53:25;1.58;;;0.80;;
69087;SDS011;56190;43.562;5.036;2022-09-09T13:55:50;1.52;;;0.80;;
69087;SDS011;56190;43.562;5.036;2022-09-09T13:58:17;1.70;;;0.60;;
69087;SDS011;56190;43.562;5.036;2022-09-09T14:00:46;2.25;;;0.65;;
69087;SDS011;56190;43.562;5.036;2022-09-09T14:03:12;1.13;;;0.60;;
69087;SDS011;56190;43.562;5.036;2022-09-09T14:05:37;3.00;;;0.73;;
69087;SDS011;56190;43.562;5.036;2022-09-09T14:08:03;1.48;;;0.60;;
69087;SDS011;56190;43.562;5.036;2022-09-09T14:10:29;1.23;;;0.50;;
69087;SDS011;56190;43.562;5.036;2022-09-09T14:12:54;0.88;;;0.50;;
69087;SDS011;56190;43.562;5.036;2022-09-09T14:15:21;2.67;;;0.70;;
69087;SDS011;56190;43.562;5.036;2022-09-09T14:17:46;0.77;;;0.60;;
69087;SDS011;56190;43.562;5.036;2022-09-09T14:20:13;0.88;;;0.60;;
69087;SDS011;56190;43.562;5.036;2022-09-09T14:22:40;1.40;;;0.60;;
69087;SDS011;56190;43.562;5.036;2022-09-09T14:25:06;1.00;;;0.70;;
69087;SDS011;56190;43.562;5.036;2022-09-09T14:27:31;1.10;;;0.75;;
69087;SDS011;56190;43.562;5.036;2022-09-09T14:29:57;1.73;;;0.68;;
69087;SDS011;56190;43.562;5.036;2022-09-09T14:32:22;1.50;;;0.65;;
69087;SDS011;56190;43.562;5.036;2022-09-09T14:34:48;2.17;;;0.70;;
69087;SDS011;56190;43.562;5.036;2022-09-09T14:37:16;1.90;;;0.70;;
69087;SDS011;56190;43.562;5.036;2022-09-09T14:39:42;3.42;;;0.80;;
69087;SDS011;56190;43.562;5.036;2022-09-09T14:42:09;2.50;;;0.77;;
69087;SDS011;56190;43.562;5.036;2022-09-09T14:44:36;0.80;;;0.50;;
69087;SDS011;56190;43.562;5.036;2022-09-09T14:47:02;1.48;;;0.80;;
69087;SDS011;56190;43.562;5.036;2022-09-09T14:49:27;1.85;;;0.80;;
69087;SDS011;56190;43.562;5.036;2022-09-09T14:51:53;1.63;;;0.70;;
69087;SDS011;56190;43.562;5.036;2022-09-09T14:54:18;1.67;;;0.88;;
69087;SDS011;56190;43.562;5.036;2022-09-09T14:56:43;2.72;;;0.90;;
69087;SDS011;56190;43.562;5.036;2022-09-09T14:59:09;1.15;;;0.70;;
69087;SDS011;56190;43.562;5.036;2022-09-09T15:01:34;1.63;;;0.73;;
69087;SDS011;56190;43.562;5.036;2022-09-09T15:04:00;2.10;;;0.68;;
69087;SDS011;56190;43.562;5.036;2022-09-09T15:06:29;1.95;;;0.70;;
69087;SDS011;56190;43.562;5.036;2022-09-09T15:08:55;1.98;;;0.77;;
69087;SDS011;56190;43.562;5.036;2022-09-09T15:11:23;1.92;;;0.70;;
69087;SDS011;56190;43.562;5.036;2022-09-09T15:13:50;2.42;;;0.82;;
69087;SDS011;56190;43.562;5.036;2022-09-09T15:16:17;2.78;;;0.90;;
69087;SDS011;56190;43.562;5.036;2022-09-09T15:18:43;1.23;;;0.70;;
69087;SDS011;56190;43.562;5.036;2022-09-09T15:21:10;2.45;;;0.68;;
69087;SDS011;56190;43.562;5.036;2022-09-09T15:23:35;1.23;;;0.80;;
69087;SDS011;56190;43.562;5.036;2022-09-09T15:26:01;1.15;;;0.80;;
69087;SDS011;56190;43.562;5.036;2022-09-09T15:28:27;2.05;;;0.75;;
69087;SDS011;56190;43.562;5.036;2022-09-09T15:30:52;0.93;;;0.82;;
69087;SDS011;56190;43.562;5.036;2022-09-09T15:33:21;1.85;;;0.90;;
69087;SDS011;56190;43.562;5.036;2022-09-09T15:35:47;2.50;;;0.80;;
69087;SDS011;56190;43.562;5.036;2022-09-09T15:38:13;1.23;;;0.70;;
69087;SDS011;56190;43.562;5.036;2022-09-09T15:40:40;0.93;;;0.80;;
69087;SDS011;56190;43.562;5.036;2022-09-09T15:43:06;1.65;;;0.60;;
69087;SDS011;56190;43.562;5.036;2022-09-09T15:45:31;1.95;;;0.73;;
69087;SDS011;56190;43.562;5.036;2022-09-09T15:47:58;2.72;;;1.15;;
69087;SDS011;56190;43.562;5.036;2022-09-09T15:50:23;1.55;;;0.70;;
69087;SDS011;56190;43.562;5.036;2022-09-09T15:52:48;1.23;;;0.70;;
69087;SDS011;56190;43.562;5.036;2022-09-09T15:55:14;1.52;;;0.80;;
69087;SDS011;56190;43.562;5.036;2022-09-09T15:57:39;1.58;;;0.85;;
69087;SDS011;56190;43.562;5.036;2022-09-09T16:00:05;3.15;;;0.75;;
69087;SDS011;56190;43.562;5.036;2022-09-09T16:02:31;0.68;;;0.60;;
69087;SDS011;56190;43.562;5.036;2022-09-09T16:04:59;2.20;;;0.90;;
69087;SDS011;56190;43.562;5.036;2022-09-09T16:07:26;1.55;;;0.60;;
69087;SDS011;56190;43.562;5.036;2022-09-09T16:09:51;1.20;;;0.70;;
69087;SDS011;56190;43.562;5.036;2022-09-09T16:12:17;0.63;;;0.60;;
69087;SDS011;56190;43.562;5.036;2022-09-09T16:14:43;1.15;;;0.73;;
69087;SDS011;56190;43.562;5.036;2022-09-09T16:17:10;0.90;;;0.80;;
69087;SDS011;56190;43.562;5.036;2022-09-09T16:19:36;0.63;;;0.50;;
69087;SDS011;56190;43.562;5.036;2022-09-09T16:22:01;1.65;;;0.75;;
69087;SDS011;56190;43.562;5.036;2022-09-09T16:24:27;1.73;;;0.63;;
69087;SDS011;56190;43.562;5.036;2022-09-09T16:26:53;1.10;;;0.70;;
69087;SDS011;56190;43.562;5.036;2022-09-09T16:29:19;2.92;;;0.70;;
69087;SDS011;56190;43.562;5.036;2022-09-09T16:31:45;2.35;;;0.77;;
69087;SDS011;56190;43.562;5.036;2022-09-09T16:34:11;1.15;;;0.57;;
69087;SDS011;56190;43.562;5.036;2022-09-09T16:36:38;1.05;;;0.60;;
69087;SDS011;56190;43.562;5.036;2022-09-09T16:39:10;1.35;;;0.57;;
69087;SDS011;56190;43.562;5.036;2022-09-09T16:41:36;2.38;;;0.88;;
69087;SDS011;56190;43.562;5.036;2022-09-09T16:44:04;1.48;;;0.85;;
69087;SDS011;56190;43.562;5.036;2022-09-09T16:46:31;1.05;;;0.50;;
69087;SDS011;56190;43.562;5.036;2022-09-09T16:48:57;1.52;;;0.50;;
69087;SDS011;56190;43.562;5.036;2022-09-09T16:51:27;1.70;;;0.60;;
69087;SDS011;56190;43.562;5.036;2022-09-09T16:53:53;0.77;;;0.57;;
69087;SDS011;56190;43.562;5.036;2022-09-09T16:56:20;1.70;;;0.65;;
69087;SDS011;56190;43.562;5.036;2022-09-09T16:59:05;1.73;;;0.50;;
69087;SDS011;56190;43.562;5.036;2022-09-09T17:01:31;1.13;;;0.60;;
69087;SDS011;56190;43.562;5.036;2022-09-09T17:04:01;0.80;;;0.60;;
69087;SDS011;56190;43.562;5.036;2022-09-09T17:06:27;1.10;;;0.55;;
69087;SDS011;56190;43.562;5.036;2022-09-09T17:08:59;2.97;;;0.60;;
69087;SDS011;56190;43.562;5.036;2022-09-09T17:11:26;0.80;;;0.60;;
69087;SDS011;56190;43.562;5.036;2022-09-09T17:13:52;1.42;;;0.63;;
69087;SDS011;56190;43.562;5.036;2022-09-09T17:16:18;1.35;;;0.70;;
69087;SDS011;56190;43.562;5.036;2022-09-09T17:18:45;1.00;;;0.50;;
69087;SDS011;56190;43.562;5.036;2022-09-09T17:21:15;1.95;;;0.70;;
69087;SDS011;56190;43.562;5.036;2022-09-09T17:23:41;1.05;;;0.50;;
69087;SDS011;56190;43.562;5.036;2022-09-09T17:26:07;1.98;;;0.77;;